createdAt,value
2024-04-23T00:03:09.328Z,0
2024-04-23T00:16:09.356Z,0.8
2024-04-23T00:29:09.307Z,0
2024-04-23T00:42:09.312Z,1.0
2024-04-23T00:55:09.316Z,0.7
2024-04-23T01:08:09.329Z,0.4
2024-04-23T01:21:09.326Z,1.0
2024-04-23T01:34:09.306Z,0.8
2024-04-23T01:47:09.573Z,0.8
2024-04-23T02:00:09.320Z,1.0
2024-04-23T02:13:09.334Z,0.2
2024-04-23T02:26:09.373Z,0.9
2024-04-23T02:39:09.349Z,0.6
2024-04-23T02:52:09.361Z,0.2
2024-04-23T03:05:09.385Z,0.2
2024-04-23T03:18:09.387Z,1.1
2024-04-23T03:31:09.380Z,1.1
2024-04-23T03:44:09.412Z,1.3
2024-04-23T03:57:09.379Z,0.8
2024-04-23T04:10:09.382Z,0.8
2024-04-23T04:24:09.392Z,1.3
2024-04-23T04:38:09.406Z,1.8
2024-04-23T04:52:09.911Z,0.6
2024-04-23T05:06:09.449Z,0.6
2024-04-23T05:20:09.456Z,0.4
2024-04-23T05:34:09.497Z,0
2024-04-23T05:48:09.496Z,0.8
2024-04-23T06:03:09.501Z,1.7
2024-04-23T06:18:09.498Z,1.4
2024-04-23T06:32:09.494Z,1.0
2024-04-23T06:46:09.487Z,2.4
2024-04-23T07:00:09.468Z,1.4
2024-04-23T07:14:09.522Z,1.9
2024-04-23T07:28:09.474Z,1.5
2024-04-23T07:42:09.478Z,2.4
2024-04-23T07:56:09.496Z,2.6
2024-04-23T08:10:09.478Z,1.8
2024-04-23T08:24:09.480Z,1.6
2024-04-23T08:38:09.530Z,2.1
2024-04-23T08:52:09.502Z,2.0
2024-04-23T09:06:09.508Z,1.3
2024-04-23T09:21:09.528Z,1.0
2024-04-23T09:35:09.576Z,0
2024-04-23T09:49:09.593Z,1.3
2024-04-23T10:03:10.664Z,0.9
2024-04-23T10:17:09.602Z,0.9
2024-04-23T10:31:09.571Z,2.0
2024-04-23T10:45:09.631Z,1.0
2024-04-23T10:59:09.585Z,0.7
2024-04-23T11:13:09.546Z,2.3
2024-04-23T11:27:09.559Z,1.5
2024-04-23T11:41:09.694Z,1.4
2024-04-23T11:55:09.585Z,0
2024-04-23T12:09:09.601Z,0.2
2024-04-23T12:23:09.599Z,0
2024-04-23T12:37:09.658Z,0.8
2024-04-23T12:51:09.622Z,0
2024-04-23T13:05:09.655Z,0.8
2024-04-23T13:19:09.621Z,0.2
2024-04-23T13:33:09.647Z,1.4
2024-04-23T13:47:09.673Z,1.0
2024-04-23T14:01:09.655Z,1.5
2024-04-23T14:15:09.655Z,1.4
2024-04-23T14:29:09.663Z,0.4
2024-04-23T14:43:09.646Z,1.6
2024-04-23T14:57:09.657Z,0.8
2024-04-23T15:11:09.823Z,0.9
2024-04-23T15:25:09.684Z,0.2
2024-04-23T15:39:09.683Z,1.0
2024-04-23T15:53:09.716Z,0.8
2024-04-23T16:07:09.677Z,0
2024-04-23T16:22:09.680Z,0
2024-04-23T16:36:09.699Z,0
2024-04-23T16:50:09.761Z,0
2024-04-23T17:04:09.776Z,0
2024-04-23T17:18:09.779Z,0
2024-04-23T17:33:09.916Z,0
2024-04-23T17:47:09.805Z,0
2024-04-23T18:02:09.793Z,0
2024-04-23T18:16:09.741Z,0
2024-04-23T18:30:09.738Z,0
2024-04-23T18:44:09.763Z,0
2024-04-23T18:57:09.754Z,0
2024-04-23T19:10:10.076Z,0
2024-04-23T19:23:10.023Z,0
2024-04-23T19:36:09.776Z,0
2024-04-23T19:49:09.770Z,0
2024-04-23T20:02:09.816Z,0
2024-04-23T20:15:09.775Z,0.4
2024-04-23T20:28:09.779Z,0
2024-04-23T20:41:09.819Z,0
2024-04-23T20:54:09.785Z,0
2024-04-23T21:07:09.800Z,0.6
2024-04-23T21:20:09.858Z,0
2024-04-23T21:33:09.851Z,0
2024-04-23T21:46:09.798Z,0
2024-04-23T21:59:09.839Z,0
2024-04-23T22:12:09.827Z,0
2024-04-23T22:25:09.820Z,0
2024-04-23T22:38:10.009Z,0
2024-04-23T22:51:09.980Z,0
2024-04-23T23:04:09.968Z,0
2024-04-23T23:17:09.949Z,0
2024-04-23T23:30:09.853Z,0
2024-04-23T23:43:09.854Z,0
2024-04-23T23:56:09.863Z,0
